createdAt,value
2018-12-23T00:00:29.046Z,71.62
2018-12-23T00:02:59.403Z,73.25
2018-12-23T00:05:29.627Z,74.09
2018-12-23T00:07:59.869Z,74.44
2018-12-23T00:10:30.112Z,74.12
2018-12-23T00:13:00.266Z,72.41
2018-12-23T00:15:30.446Z,71.87
2018-12-23T00:18:00.734Z,71.87
2018-12-23T00:20:31.057Z,71.46
2018-12-23T00:23:01.345Z,71.35
2018-12-23T00:25:31.822Z,71.12
2018-12-23T00:28:02.036Z,71.16
2018-12-23T00:30:32.141Z,71.40
2018-12-23T00:33:02.418Z,71.17
2018-12-23T00:35:32.593Z,71.01
2018-12-23T00:38:02.785Z,70.90
2018-12-23T00:40:33.038Z,71.27
2018-12-23T00:43:03.333Z,70.08
2018-12-23T00:45:33.595Z,70.25
2018-12-23T00:48:03.814Z,70.76
2018-12-23T00:50:34.194Z,70.72
2018-12-23T00:53:04.433Z,70.42
2018-12-23T00:55:34.709Z,70.09
2018-12-23T00:58:04.895Z,70.73
2018-12-23T01:00:35.416Z,70.74
2018-12-23T01:03:05.581Z,70.86
2018-12-23T01:05:35.866Z,70.11
2018-12-23T01:08:06.017Z,70.03
2018-12-23T01:10:36.260Z,70.48
2018-12-23T01:13:06.478Z,70.81
2018-12-23T01:15:36.733Z,71.10
2018-12-23T01:18:07.122Z,70.43
2018-12-23T01:20:37.311Z,69.99
2018-12-23T01:23:07.562Z,70.14
2018-12-23T01:25:37.933Z,70.24
2018-12-23T01:28:08.247Z,70.43
2018-12-23T01:30:39.455Z,70.17
2018-12-23T01:33:09.788Z,70.47
2018-12-23T01:35:39.893Z,70.19
2018-12-23T01:38:10.211Z,70.12
2018-12-23T01:40:40.528Z,70.33
2018-12-23T01:43:10.640Z,70.46
2018-12-23T01:45:40.890Z,70.72
2018-12-23T01:48:11.152Z,70.90
2018-12-23T01:50:41.472Z,70.94
2018-12-23T01:53:11.853Z,70.94
2018-12-23T01:55:42.046Z,70.62
2018-12-23T01:58:12.101Z,70.94
2018-12-23T02:00:42.393Z,71.98
2018-12-23T02:03:12.685Z,72.96
2018-12-23T02:05:46.175Z,72.92
2018-12-23T02:08:16.439Z,73.00
2018-12-23T02:10:46.676Z,72.16
2018-12-23T02:13:16.899Z,72.18
2018-12-23T02:15:47.848Z,72.28
2018-12-23T02:18:18.147Z,72.30
2018-12-23T02:20:48.516Z,71.22
2018-12-23T02:23:18.785Z,71.39
2018-12-23T02:25:48.986Z,71.33
2018-12-23T02:28:19.229Z,71.60
2018-12-23T02:30:49.479Z,71.87
2018-12-23T02:33:20.167Z,71.87
2018-12-23T02:35:55.437Z,71.72
2018-12-23T02:38:22.682Z,72.12
2018-12-23T02:40:52.991Z,72.03
2018-12-23T02:43:23.217Z,71.39
2018-12-23T02:45:53.792Z,71.27
2018-12-23T02:48:24.034Z,73.54
2018-12-23T02:50:54.329Z,73.26
2018-12-23T02:53:24.572Z,72.71
2018-12-23T02:55:54.760Z,73.77
2018-12-23T02:58:25.005Z,73.31
2018-12-23T03:00:55.269Z,73.90
2018-12-23T03:03:25.551Z,73.25
2018-12-23T03:06:05.421Z,73.32
2018-12-23T03:08:28.097Z,73.90
2018-12-23T03:10:58.331Z,74.26
2018-12-23T03:13:28.615Z,73.58
2018-12-23T03:15:59.193Z,74.34
2018-12-23T03:18:29.439Z,74.04
2018-12-23T03:20:59.675Z,74.39
2018-12-23T03:23:30.107Z,74.26
2018-12-23T03:26:00.272Z,75.12
2018-12-23T03:28:30.611Z,75.88
2018-12-23T03:31:00.895Z,75.74
2018-12-23T03:33:31.214Z,75.48
2018-12-23T03:36:01.429Z,75.78
2018-12-23T03:38:31.641Z,76.03
2018-12-23T03:41:01.918Z,75.72
2018-12-23T03:43:32.080Z,75.66
2018-12-23T03:46:02.858Z,75.95
2018-12-23T03:48:33.042Z,75.34
2018-12-23T03:51:03.231Z,74.43
2018-12-23T03:53:33.448Z,74.91
2018-12-23T03:56:03.947Z,74.43
2018-12-23T03:58:34.171Z,74.79
2018-12-23T04:01:04.432Z,74.66
2018-12-23T04:03:34.705Z,74.45
2018-12-23T04:06:04.975Z,74.51
2018-12-23T04:08:35.194Z,74.28
2018-12-23T04:11:05.347Z,73.11
2018-12-23T04:13:35.482Z,72.24
2018-12-23T04:16:05.773Z,72.01
2018-12-23T04:18:36.128Z,72.29
2018-12-23T04:21:06.286Z,71.55
2018-12-23T04:23:36.552Z,71.46
2018-12-23T04:26:06.827Z,71.77
2018-12-23T04:28:37.779Z,72.00
2018-12-23T04:31:08.076Z,72.39
2018-12-23T04:33:38.586Z,72.53
2018-12-23T04:36:08.847Z,72.88
2018-12-23T04:38:39.105Z,72.66
2018-12-23T04:41:10.092Z,73.65
2018-12-23T04:43:40.445Z,73.92
2018-12-23T04:46:10.431Z,74.27
2018-12-23T04:48:40.573Z,74.76
2018-12-23T04:51:11.020Z,74.46
2018-12-23T04:53:43.014Z,74.72
2018-12-23T04:56:13.258Z,74.35
2018-12-23T04:58:43.363Z,74.18
2018-12-23T05:01:14.363Z,73.98
2018-12-23T05:03:45.317Z,73.48
2018-12-23T05:06:17.801Z,73.74
2018-12-23T05:08:47.770Z,73.41
2018-12-23T05:11:18.271Z,73.37
2018-12-23T05:13:48.490Z,73.34
2018-12-23T05:16:18.767Z,73.27
2018-12-23T05:18:49.048Z,73.36
2018-12-23T05:21:19.393Z,73.66
2018-12-23T05:23:49.639Z,73.77
2018-12-23T05:26:19.842Z,74.42
2018-12-23T05:28:50.060Z,74.86
2018-12-23T05:31:20.262Z,75.47
2018-12-23T05:33:50.348Z,76.15
2018-12-23T05:36:20.734Z,76.00
2018-12-23T05:38:50.886Z,75.03
2018-12-23T05:41:21.260Z,76.04
2018-12-23T05:43:51.367Z,76.53
2018-12-23T05:46:21.611Z,76.55
2018-12-23T05:48:51.730Z,75.10
2018-12-23T05:51:22.029Z,75.69
2018-12-23T05:53:52.357Z,75.14
2018-12-23T05:56:22.497Z,75.52
2018-12-23T05:58:52.652Z,75.69
2018-12-23T06:01:22.852Z,75.02
2018-12-23T06:03:53.153Z,75.92
2018-12-23T06:06:23.536Z,75.77
2018-12-23T06:08:53.780Z,74.74
2018-12-23T06:11:24.015Z,74.66
2018-12-23T06:13:54.880Z,74.26
2018-12-23T06:16:25.117Z,73.93
2018-12-23T06:18:55.373Z,73.37
2018-12-23T06:21:25.645Z,73.59
2018-12-23T06:23:55.926Z,73.75
2018-12-23T06:26:26.163Z,73.48
2018-12-23T06:28:56.680Z,72.77
2018-12-23T06:31:26.826Z,73.26
2018-12-23T06:33:57.151Z,73.29
2018-12-23T06:36:36.345Z,72.66
2018-12-23T06:39:07.823Z,72.18
2018-12-23T06:41:38.219Z,71.94
2018-12-23T06:44:08.374Z,71.55
2018-12-23T06:46:38.616Z,72.16
2018-12-23T06:49:09.124Z,71.83
2018-12-23T06:51:39.405Z,71.99
2018-12-23T06:54:09.634Z,72.10
2018-12-23T06:56:39.793Z,72.36
2018-12-23T06:59:10.036Z,72.57
2018-12-23T07:01:40.340Z,72.01
2018-12-23T07:04:10.477Z,72.03
2018-12-23T07:06:40.717Z,70.59
2018-12-23T07:09:10.917Z,70.27
2018-12-23T07:11:41.240Z,68.62
2018-12-23T07:14:11.501Z,67.47
2018-12-23T07:16:41.861Z,66.29
2018-12-23T07:19:12.132Z,64.87
2018-12-23T07:21:42.420Z,61.37
2018-12-23T07:24:12.738Z,55.70
2018-12-23T07:26:43.723Z,52.70
2018-12-23T07:29:14.020Z,51.68
2018-12-23T07:31:44.320Z,50.88
2018-12-23T07:34:14.543Z,48.46
2018-12-23T07:36:49.607Z,45.67
2018-12-23T07:39:17.721Z,44.42
2018-12-23T07:41:47.908Z,44.74
2018-12-23T07:44:18.161Z,47.47
2018-12-23T07:46:48.925Z,48.42
2018-12-23T07:49:19.177Z,49.20
2018-12-23T07:51:49.408Z,47.70
2018-12-23T07:54:19.673Z,48.52
2018-12-23T07:56:49.794Z,46.43
2018-12-23T07:59:20.137Z,42.89
2018-12-23T08:01:50.476Z,37.02
2018-12-23T08:04:20.696Z,34.57
2018-12-23T08:06:50.959Z,31.73
2018-12-23T08:09:21.635Z,29.55
2018-12-23T08:11:51.794Z,27.48
2018-12-23T08:14:22.043Z,26.55
2018-12-23T08:16:52.232Z,24.70
2018-12-23T08:19:22.475Z,24.01
2018-12-23T08:21:52.800Z,23.32
2018-12-23T08:24:22.891Z,21.81
2018-12-23T08:26:53.172Z,21.21
2018-12-23T08:29:23.336Z,21.53
2018-12-23T08:31:53.693Z,22.32
2018-12-23T08:34:23.961Z,23.36
2018-12-23T08:36:54.778Z,22.13
2018-12-23T08:39:24.943Z,23.50
2018-12-23T08:41:56.237Z,23.43
2018-12-23T08:44:26.300Z,23.30
2018-12-23T08:46:56.477Z,23.62
2018-12-23T08:49:26.746Z,22.63
2018-12-23T08:51:57.567Z,22.20
2018-12-23T08:54:27.840Z,23.30
2018-12-23T08:56:58.575Z,22.52
2018-12-23T08:59:29.051Z,24.01
2018-12-23T09:01:59.231Z,23.13
2018-12-23T09:04:29.617Z,23.98
2018-12-23T09:06:59.951Z,22.53
2018-12-23T09:09:31.257Z,23.67
2018-12-23T09:12:01.597Z,23.08
2018-12-23T09:14:31.768Z,23.05
2018-12-23T09:17:01.907Z,22.43
2018-12-23T09:19:32.181Z,22.37
2018-12-23T09:22:02.518Z,21.51
2018-12-23T09:24:32.650Z,22.02
2018-12-23T09:27:02.954Z,23.98
2018-12-23T09:29:33.234Z,25.98
2018-12-23T09:32:03.279Z,27.02
2018-12-23T09:36:02.654Z,29.35
2018-12-23T09:38:33.333Z,33.35
2018-12-23T09:41:04.809Z,35.36
2018-12-23T09:43:34.895Z,36.75
2018-12-23T09:46:05.225Z,38.39
2018-12-23T09:48:35.496Z,40.69
2018-12-23T09:51:05.910Z,40.95
2018-12-23T09:53:36.124Z,39.82
2018-12-23T09:56:06.302Z,38.47
2018-12-23T09:58:36.620Z,36.77
2018-12-23T10:01:07.382Z,34.42
2018-12-23T10:03:37.960Z,31.74
2018-12-23T10:06:08.154Z,28.85
2018-12-23T10:08:38.333Z,26.65
2018-12-23T10:11:08.623Z,27.29
2018-12-23T10:13:38.884Z,28.56
2018-12-23T10:16:09.032Z,28.76
2018-12-23T10:18:39.011Z,28.89
2018-12-23T10:21:10.237Z,29.31
2018-12-23T10:23:40.732Z,29.09
2018-12-23T10:26:11.125Z,30.36
2018-12-23T10:28:41.131Z,28.62
2018-12-23T10:31:12.029Z,27.64
2018-12-23T10:33:42.546Z,27.68
2018-12-23T10:36:12.874Z,30.49
2018-12-23T10:38:43.084Z,30.96
2018-12-23T10:41:13.450Z,30.99
2018-12-23T10:43:43.595Z,30.11
2018-12-23T10:46:13.599Z,30.00
2018-12-23T10:48:43.951Z,28.96
2018-12-23T10:51:14.204Z,28.21
2018-12-23T10:53:44.729Z,27.98
2018-12-23T10:56:15.206Z,26.20
2018-12-23T10:58:45.532Z,24.13
2018-12-23T11:01:15.920Z,23.53
2018-12-23T11:03:46.313Z,21.86
2018-12-23T11:06:16.640Z,21.67
2018-12-23T11:08:47.046Z,21.00
2018-12-23T11:11:18.434Z,21.26
2018-12-23T11:13:48.723Z,20.60
2018-12-23T11:16:19.051Z,21.72
2018-12-23T11:18:50.333Z,22.67
2018-12-23T11:21:20.791Z,23.00
2018-12-23T11:23:51.099Z,22.43
2018-12-23T11:26:21.401Z,22.99
2018-12-23T11:28:51.645Z,24.34
2018-12-23T11:31:21.930Z,25.58
2018-12-23T11:33:52.143Z,24.07
2018-12-23T11:36:22.363Z,24.59
2018-12-23T11:38:52.655Z,25.27
2018-12-23T11:41:22.745Z,25.72
2018-12-23T11:43:54.266Z,25.43
2018-12-23T11:46:24.638Z,26.52
2018-12-23T11:48:56.046Z,25.97
2018-12-23T11:51:26.485Z,26.01
2018-12-23T11:53:56.738Z,27.92
2018-12-23T11:56:27.582Z,27.85
2018-12-23T11:58:57.820Z,30.16
2018-12-23T12:01:28.057Z,32.96
2018-12-23T12:03:58.033Z,34.34
2018-12-23T12:06:28.243Z,35.55
2018-12-23T12:09:06.788Z,37.96
2018-12-23T12:11:32.323Z,39.21
2018-12-23T12:14:02.827Z,39.11
2018-12-23T12:16:32.938Z,40.52
2018-12-23T12:19:02.922Z,41.19
2018-12-23T12:21:32.954Z,42.44
2018-12-23T12:24:03.388Z,42.76
2018-12-23T12:26:33.723Z,43.91
2018-12-23T12:29:03.673Z,44.13
2018-12-23T12:31:34.088Z,44.29
2018-12-23T12:34:04.573Z,44.43
2018-12-23T12:36:34.664Z,44.91
2018-12-23T12:39:06.957Z,45.50
2018-12-23T12:41:37.385Z,46.39
2018-12-23T12:44:08.310Z,45.90
2018-12-23T12:46:38.429Z,45.22
2018-12-23T12:49:44.589Z,45.51
2018-12-23T12:52:16.159Z,45.67
2018-12-23T12:54:47.784Z,46.44
2018-12-23T12:57:19.519Z,46.81
2018-12-23T12:59:53.251Z,46.25
2018-12-23T13:02:24.909Z,46.34
2018-12-23T13:04:56.608Z,47.23
2018-12-23T13:07:28.390Z,47.04
2018-12-23T13:10:00.288Z,46.89
2018-12-23T13:12:32.013Z,46.79
2018-12-23T13:15:03.881Z,47.57
2018-12-23T13:17:35.464Z,47.89
2018-12-23T13:20:08.002Z,48.70
2018-12-23T13:22:39.458Z,48.95
2018-12-23T13:25:10.997Z,49.43
2018-12-23T13:27:42.438Z,49.85
2018-12-23T13:30:14.142Z,50.36
2018-12-23T13:32:45.765Z,49.98
2018-12-23T13:35:17.416Z,49.73
2018-12-23T13:37:49.738Z,50.31
2018-12-23T13:41:10.138Z,49.88
2018-12-23T13:44:22.012Z,49.56
2018-12-23T13:47:23.046Z,49.66
2018-12-23T13:50:49.612Z,49.79
2018-12-23T13:53:57.488Z,49.65
2018-12-23T13:56:53.445Z,50.63
2018-12-23T14:00:16.491Z,50.40
2018-12-23T14:03:13.462Z,50.06
2018-12-23T14:06:22.958Z,50.01
2018-12-23T14:09:53.427Z,50.24
2018-12-23T14:12:25.145Z,49.08
2018-12-23T14:14:56.823Z,49.35
2018-12-23T14:17:28.469Z,49.82
2018-12-23T14:20:00.233Z,49.60
2018-12-23T14:22:31.921Z,49.25
2018-12-23T14:25:03.466Z,49.62
2018-12-23T14:27:35.145Z,49.58
2018-12-23T14:30:07.466Z,49.94
2018-12-23T14:32:39.116Z,50.26
2018-12-23T14:35:10.721Z,51.42
2018-12-23T14:37:42.572Z,51.24
2018-12-23T14:40:14.339Z,51.35
2018-12-23T14:42:46.104Z,52.06
2018-12-23T14:45:17.750Z,52.13
2018-12-23T14:47:49.455Z,52.16
2018-12-23T14:50:20.963Z,52.59
2018-12-23T14:52:52.685Z,52.48
2018-12-23T14:55:24.374Z,52.64
2018-12-23T14:57:55.972Z,52.64
2018-12-23T15:00:27.518Z,53.05
2018-12-23T15:02:59.380Z,53.32
2018-12-23T15:05:30.932Z,53.39
2018-12-23T15:08:03.555Z,53.41
2018-12-23T15:10:35.213Z,53.58
2018-12-23T15:13:06.826Z,53.34
2018-12-23T15:15:38.344Z,53.36
2018-12-23T15:18:09.973Z,53.96
2018-12-23T15:20:41.604Z,53.99
2018-12-23T15:23:13.476Z,54.18
2018-12-23T15:25:45.028Z,54.11
2018-12-23T15:28:16.730Z,54.49
2018-12-23T15:30:48.450Z,54.56
2018-12-23T15:33:19.963Z,54.72
2018-12-23T15:35:51.329Z,54.73
2018-12-23T15:38:22.817Z,54.76
2018-12-23T15:40:54.465Z,54.50
2018-12-23T15:43:26.031Z,54.55
2018-12-23T15:45:57.706Z,54.95
2018-12-23T15:48:29.509Z,54.42
2018-12-23T15:51:01.243Z,55.31
2018-12-23T15:53:32.939Z,55.35
2018-12-23T15:56:04.753Z,55.27
2018-12-23T15:58:36.481Z,55.46
2018-12-23T16:01:08.320Z,55.14
2018-12-23T16:03:39.927Z,54.99
2018-12-23T16:06:11.473Z,55.06
2018-12-23T16:08:42.976Z,55.21
2018-12-23T16:11:14.694Z,55.47
2018-12-23T16:13:46.396Z,55.88
2018-12-23T16:16:18.165Z,55.88
2018-12-23T16:18:49.949Z,55.62
2018-12-23T16:21:21.619Z,55.77
2018-12-23T16:23:53.309Z,55.10
2018-12-23T16:26:24.841Z,55.35
2018-12-23T16:28:56.459Z,55.35
2018-12-23T16:31:28.367Z,55.57
2018-12-23T16:34:00.301Z,55.57
2018-12-23T16:36:32.047Z,55.48
2018-12-23T16:39:04.343Z,55.65
2018-12-23T16:41:35.828Z,55.94
2018-12-23T16:44:07.835Z,55.88
2018-12-23T16:46:39.536Z,56.17
2018-12-23T16:49:11.139Z,56.17
2018-12-23T16:51:44.609Z,55.93
2018-12-23T16:54:16.301Z,56.24
2018-12-23T16:56:47.863Z,56.70
2018-12-23T16:59:19.858Z,56.79
2018-12-23T17:01:51.625Z,56.42
2018-12-23T17:04:23.344Z,56.92
2018-12-23T17:06:56.174Z,56.92
2018-12-23T17:09:27.867Z,56.88
2018-12-23T17:11:59.444Z,56.63
2018-12-23T17:14:31.229Z,57.09
2018-12-23T17:17:02.762Z,57.33
2018-12-23T17:19:34.462Z,56.80
2018-12-23T17:22:06.229Z,57.36
2018-12-23T17:24:37.916Z,57.56
2018-12-23T17:27:09.355Z,57.20
2018-12-23T17:29:41.153Z,57.20
2018-12-23T17:32:12.782Z,57.59
2018-12-23T17:34:44.247Z,57.21
2018-12-23T17:37:15.733Z,57.52
2018-12-23T17:39:47.165Z,57.24
2018-12-23T17:42:18.574Z,57.78
2018-12-23T17:44:50.042Z,57.77
2018-12-23T17:47:21.493Z,58.02
2018-12-23T17:49:53.086Z,58.05
2018-12-23T17:52:24.549Z,58.19
2018-12-23T17:54:56.139Z,58.15
2018-12-23T17:57:27.657Z,58.23
2018-12-23T17:59:59.118Z,58.38
2018-12-23T18:02:30.577Z,58.24
2018-12-23T18:05:02.021Z,58.24
2018-12-23T18:07:33.517Z,58.68
2018-12-23T18:10:05.018Z,58.82
2018-12-23T18:12:36.565Z,58.69
2018-12-23T18:15:08.151Z,58.31
2018-12-23T18:17:39.607Z,58.54
2018-12-23T18:20:11.028Z,58.66
2018-12-23T18:22:43.544Z,58.47
2018-12-23T18:25:15.178Z,58.78
2018-12-23T18:27:46.711Z,58.92
2018-12-23T18:30:18.461Z,58.92
2018-12-23T18:32:50.025Z,58.67
2018-12-23T18:35:23.535Z,58.67
2018-12-23T18:37:55.541Z,58.32
2018-12-23T18:40:33.291Z,58.42
2018-12-23T18:43:00.703Z,58.31
2018-12-23T18:45:32.359Z,58.34
2018-12-23T18:48:04.166Z,58.20
2018-12-23T18:50:36.272Z,58.64
2018-12-23T18:53:07.802Z,58.13
2018-12-23T18:55:39.815Z,58.29
2018-12-23T18:58:11.781Z,58.98
2018-12-23T19:00:46.216Z,59.23
2018-12-23T19:03:17.789Z,59.61
2018-12-23T19:05:49.544Z,59.95
2018-12-23T19:08:27.754Z,60.34
2018-12-23T19:11:28.013Z,60.46
2018-12-23T19:14:37.247Z,60.72
2018-12-23T19:17:41.773Z,61.58
2018-12-23T19:20:50.728Z,62.27
2018-12-23T19:24:10.986Z,62.65
2018-12-23T19:27:31.656Z,63.37
2018-12-23T19:30:48.749Z,63.88
2018-12-23T19:33:51.415Z,64.58
2018-12-23T19:37:03.652Z,65.02
2018-12-23T19:40:21.917Z,65.27
2018-12-23T19:43:34.096Z,65.86
2018-12-23T19:46:24.996Z,66.97
2018-12-23T19:49:24.938Z,65.99
2018-12-23T19:52:39.112Z,65.56
2018-12-23T19:55:50.130Z,65.59
2018-12-23T19:58:54.667Z,65.66
2018-12-23T20:02:24.948Z,64.77
2018-12-23T20:05:51.336Z,65.38
2018-12-23T20:09:18.128Z,65.38
2018-12-23T20:12:24.950Z,65.24
2018-12-23T20:15:32.202Z,65.73
2018-12-23T20:18:32.045Z,66.25
2018-12-23T20:21:52.961Z,66.84
2018-12-23T20:24:53.944Z,66.64
2018-12-23T20:28:08.046Z,66.81
2018-12-23T20:31:20.641Z,66.73
2018-12-23T20:34:51.278Z,66.05
2018-12-23T20:38:06.550Z,67.18
2018-12-23T20:41:21.760Z,66.96
2018-12-23T20:44:51.978Z,67.25
2018-12-23T20:48:10.101Z,67.25
2018-12-23T20:51:19.348Z,66.70
2018-12-23T20:54:39.901Z,67.63
2018-12-23T20:58:04.305Z,67.63
2018-12-23T21:01:18.668Z,67.01
2018-12-23T21:04:45.398Z,67.32
2018-12-23T21:08:00.388Z,67.40
2018-12-23T21:11:36.737Z,67.01
2018-12-23T21:14:39.174Z,67.23
2018-12-23T21:17:35.214Z,67.23
2018-12-23T21:20:44.419Z,67.79
2018-12-23T21:23:58.288Z,67.54
2018-12-23T21:27:18.769Z,68.10
2018-12-23T21:30:46.178Z,67.81
2018-12-23T21:34:00.328Z,67.78
2018-12-23T21:37:12.417Z,67.78
2018-12-23T21:40:32.628Z,67.69
2018-12-23T21:43:49.659Z,67.89
2018-12-23T21:47:11.141Z,68.39
2018-12-23T21:50:28.160Z,68.41
2018-12-23T21:53:48.147Z,68.20
2018-12-23T21:57:06.118Z,68.20
2018-12-23T22:00:03.854Z,68.20
2018-12-23T22:03:46.480Z,68.20
2018-12-23T22:06:53.199Z,67.61
2018-12-23T22:10:01.220Z,68.47
2018-12-23T22:13:31.526Z,68.47
2018-12-23T22:16:03.129Z,68.10
2018-12-23T22:18:34.547Z,68.26
2018-12-23T22:21:06.018Z,69.05
2018-12-23T22:23:37.666Z,69.05
2018-12-23T22:26:09.367Z,68.89
2018-12-23T22:28:41.148Z,68.62
2018-12-23T22:31:12.938Z,68.62
2018-12-23T22:33:44.688Z,68.52
2018-12-23T22:36:16.594Z,69.91
2018-12-23T22:38:48.316Z,69.91
2018-12-23T22:41:23.604Z,69.62
2018-12-23T22:43:54.998Z,69.62
2018-12-23T22:46:26.456Z,70.10
2018-12-23T22:48:57.968Z,69.42
2018-12-23T22:51:29.617Z,69.42
2018-12-23T22:54:01.141Z,69.19
2018-12-23T22:56:32.729Z,68.93
2018-12-23T22:59:05.114Z,69.37
2018-12-23T23:01:40.184Z,68.98
2018-12-23T23:04:11.817Z,69.30
2018-12-23T23:06:43.593Z,69.33
2018-12-23T23:09:15.007Z,69.33
2018-12-23T23:11:50.031Z,69.80
2018-12-23T23:14:19.696Z,69.64
2018-12-23T23:16:51.385Z,68.60
2018-12-23T23:19:23.780Z,68.60
2018-12-23T23:21:55.236Z,70.94
2018-12-23T23:24:26.719Z,71.42
2018-12-23T23:26:58.352Z,71.04
2018-12-23T23:29:30.067Z,70.98
2018-12-23T23:32:01.471Z,70.98
2018-12-23T23:34:32.940Z,71.46
2018-12-23T23:37:04.366Z,71.46
2018-12-23T23:39:36.139Z,70.75
2018-12-23T23:42:07.806Z,71.19
2018-12-23T23:44:39.514Z,71.39
2018-12-23T23:47:11.138Z,71.39
2018-12-23T23:49:42.811Z,70.80
2018-12-23T23:52:14.281Z,70.57
2018-12-23T23:54:45.937Z,70.30
2018-12-23T23:57:17.581Z,70.30
2018-12-23T23:59:49.189Z,70.84
